Flight Track Log - Related Links

Times and Time Zones

All times are in EDT time to prevent confusion due to time zone crossing. See the DAL6201 flight status page for this flight to view local times or setup timezone preferences in your user account.

Time Position Orientation Groundspeed Altitude Reporting Facility
EDT Latitude Longitude Course Direction KTS MPH feet Rate Location/Type
Sun 07:33:08 PM 40.5458 -80.1294 74° East 198 228 5,200  Level Cleveland Center
Sun 07:34:08 PM 40.5975 -80.0636 44° Northeast 220 253 7,200 2,350 Climbing Cleveland Center
Sun 07:35:08 PM 40.6242 -79.9647 70° East 249 287 9,900 2,350 Climbing Cleveland Center
Sun 07:36:08 PM 40.6339 -79.8472 84° East 278 320 11,900 1,950 Climbing Cleveland Center
Sun 07:37:00 PM 40.5501 -79.3829 80° East  Level Estimated
Sun 07:37:08 PM 40.6433 -79.7156 85° East 323 372 13,800  Level Cleveland Center
Sun 07:38:00 PM 40.5796 -79.2460 74° East  Level FlightAware Approximate
Sun 07:38:08 PM 40.6528 -79.5758 85° East 361 415 15,500  Level Cleveland Center
Sun 07:39:08 PM 40.6639 -79.4308 84° East 383 441 17,500 1,700 Climbing Cleveland Center
Sun 07:40:08 PM 40.6767 -79.2800 84° East 403 464 18,900 1,550 Climbing Cleveland Center
Sun 07:41:08 PM 40.7022 -79.1314 77° East 409 471 20,600 1,700 Climbing Cleveland Center
Sun 07:42:08 PM 40.7292 -78.9747 77° East 415 478 22,300 1,250 Climbing Cleveland Center
Sun 07:43:08 PM 40.7647 -78.8422 70° East 415 478 23,100 950 Climbing Cleveland Center
Sun 07:44:08 PM 40.8122 -78.6875 68° East 436 502 24,200 1,200 Climbing Cleveland Center
Sun 07:45:08 PM 40.8803 -78.5153 62° Northeast 461 531 25,500 1,000 Climbing Cleveland Center
Sun 07:46:08 PM 41.0006 -78.4839 11° North 413 475 26,200 850 Climbing Cleveland Center
Sun 07:47:08 PM 41.1281 -78.5019 354° North 401 461 27,200 1,006 Climbing Cleveland Center
Sun 07:48:55 PM 41.2517 -78.2944 52° Northeast 419 482 29,000 647 Climbing New York Center
Sun 07:49:55 PM 41.2108 -78.1161 107° East 428 493 29,000  Level New York Center
Sun 07:50:56 PM 41.1900 -77.9456 99° East 443 510 29,000 -202 Level New York Center
Sun 07:51:54 PM 41.1706 -77.7836 99° East 448 516 28,600 -1,000 Descending New York Center
Sun 07:52:56 PM 41.1483 -77.6269 101° East 442 509 27,000 -1,550 Descending New York Center
Sun 07:53:54 PM 41.1303 -77.4681 99° East 442 509 25,500 -1,424 Descending New York Center
Sun 07:54:54 PM 41.1106 -77.3392 101° East 411 473 24,200 -1,150 Descending New York Center
Sun 07:55:54 PM 41.0933 -77.1944 99° East 399 459 23,200 -590 Descending New York Center
Sun 07:56:56 PM 41.0756 -77.0633 100° East 379 436 23,000 -98 Descending New York Center
Sun 07:57:56 PM 41.0553 -76.9292 101° East 373 429 23,000  Level New York Center
Sun 07:58:54 PM 41.0392 -76.7986 99° East 368 423 23,000  Level New York Center
Sun 07:59:55 PM 41.0208 -76.6647 100° East 363 418 23,000 -443 Level New York Center
Sun 08:00:56 PM 41.0517 -76.5492 70° East 337 388 22,100 -504 Descending New York Center
Sun 08:01:54 PM 41.1250 -76.5831 341° North 212 244 22,000 -50 Descending New York Center
Sun 08:02:55 PM 41.1386 -76.6861 280° West 144 166 22,000  Level New York Center
Sun 08:03:55 PM 41.1522 -76.7864 280° West 212 244 22,000  Level New York Center
Sun 08:04:56 PM 41.1742 -76.8878 286° West 262 302 22,000  Level New York Center
Sun 08:05:56 PM 41.2006 -76.9839 290° West 275 316 22,000  Level New York Center
Sun 08:06:54 PM 41.1611 -77.0575 235° Southwest 255 293 22,000  Level New York Center
Sun 08:07:54 PM 41.0925 -76.9794 139° Southeast 171 197 22,000 -595 Level New York Center
Sun 08:08:55 PM 41.0600 -76.8417 107° East 259 298 20,800 -1,289 Descending New York Center
Sun 08:09:55 PM 41.0311 -76.7097 106° East 316 364 19,400 -908 Descending New York Center
Sun 08:10:54 PM 41.0022 -76.5781 106° East 354 407 19,000 -200 Descending New York Center
Sun 08:11:55 PM 40.9694 -76.4378 107° East 365 420 19,000 -49 Level New York Center
Sun 08:12:56 PM 40.9414 -76.3256 108° East 365 420 18,900 -807 Descending New York Center
Sun 08:13:54 PM 40.9083 -76.1856 107° East 360 414 17,400 -1,373 Descending New York Center
Sun 08:14:54 PM 40.8764 -76.0650 109° East 355 409 16,200 -694 Descending New York Center
Sun 08:15:55 PM 40.8519 -75.9589 107° East 350 403 16,000 -496 Descending New York Center
Sun 08:16:55 PM 40.8217 -75.8386 108° East 350 403 15,200 -1,091 Descending New York Center
Sun 08:17:56 PM 40.7933 -75.7214 108° East 338 389 13,800 -1,091 Descending New York Center
Sun 08:18:56 PM 40.7631 -75.5986 108° East 332 382 13,000 -407 Descending New York Center
Sun 08:19:54 PM 40.7381 -75.4956 108° East 324 373 13,000 -712 Level New York Center
Sun 08:20:54 PM 40.7114 -75.3786 107° East 329 379 11,600 -1,279 Descending New York Center
Sun 08:21:56 PM 40.6886 -75.2675 105° East 324 373 10,400 -787 Descending New York Center
Sun 08:22:56 PM 40.6594 -75.1508 108° East 318 366 10,000 -198 Descending New York Center
Sun 08:23:57 PM 40.6044 -75.0653 130° Southeast 301 346 10,000  Level New York Center
Sun 08:24:54 PM 40.5636 -74.9808 122° Southeast 301 346 10,000  Level New York Center
Sun 08:25:54 PM 40.5317 -74.8833 113° Southeast 288 331 10,000  Level New York Center
Sun 08:26:56 PM 40.5036 -74.7861 111° Southeast 266 306 10,000 -200 Level New York Center
Sun 08:27:54 PM 40.4644 -74.7128 125° Southeast 260 299 9,600 -504 Descending New York Center
Sun 08:28:55 PM 40.4147 -74.6444 134° Southeast 255 293 9,000 -295 Descending New York Center
Sun 08:29:56 PM 40.4092 -74.5597 95° East 243 280 9,000  Level New York Center
Sun 08:30:57 PM 40.4167 -74.4567 85° East 248 285 9,000 -153 Level New York Center
Sun 08:31:54 PM 40.4194 -74.3614 88° East 253 291 8,700 -769 Descending New York Center
Sun 08:32:54 PM 40.4325 -74.2719 79° East 253 291 7,500 -843 Descending New York Center
Sun 08:33:55 PM 40.4619 -74.1944 63° Northeast 240 276 7,000 -496 Descending New York Center
Sun 08:34:55 PM 40.5058 -74.1228 51° Northeast 235 270 6,500 -807 Descending New York Center
Sun 08:35:54 PM 40.5572 -74.0736 36° Northeast 230 265 5,400 -1,160 Descending New York Center
Sun 08:36:54 PM 40.6139 -74.0544 14° North 221 254 4,200 -903 Descending New York Center
Sun 08:37:27 PM 40.6500 -74.0333 24° Northeast 229 264 4,000 -136 Descending New York TRACON
Sun 08:38:22 PM 40.7167 -74.0167 11° North 228 262 4,000  Level New York TRACON
Sun 08:39:22 PM 40.7667 -74.0000 14° North 229 264 4,000  Level New York TRACON
Sun 08:40:21 PM 40.8333 -73.9667 21° North 233 268 4,000  Level New York TRACON
Sun 08:41:22 PM 40.8833 -73.9333 27° Northeast 200 230 4,000  Level New York TRACON
Sun 08:42:22 PM 40.9333 -73.9000 27° Northeast 190 219 4,000 -50 Level New York TRACON
Sun 08:43:22 PM 40.9667 -73.8500 49° Northeast 196 226 3,900 -500 Descending New York TRACON
Sun 08:44:22 PM 40.9333 -73.8000 131° Southeast 190 219 3,000 -950 Descending New York TRACON
Sun 08:45:22 PM 40.8833 -73.7833 166° South 190 219 2,000 -700 Descending New York TRACON
Sun 08:46:22 PM 40.8500 -73.8167 217° Southwest 142 163 1,600 -550 Descending New York TRACON
Sun 08:47:22 PM 40.8167 -73.8333 201° Southwest 135 155 900 -700 Descending New York TRACON

Login

Don't have an account? Register now (free) for customized features, flight alerts, and more!